»·PEaware :: AAL1023 KABQ-KPHX

AAL1023 :: KABQ-KPHX

FLIGHT INFORMATION

Flight Status: Arrived
Operator:
American Airlines
More flights by this operator :: More flights under this callsign
Pilot: Vimal Ana (13781)
Aircraft: BOEING 757-200
(B752)
More flights by this aircraft type
Origin: KABQ Albuquerque Intl Sunport
United States
Destination: KPHX Phoenix Sky Harbor Intl
United States
More flights between these airports :: More routes between these airports
Route: +RDRNR3 ZUN EAGUL6
File this flight plan on PilotEdge
Remarks:
Altitude:
(Current/Filed)
32,000ft
Speed:
(Current/Filed)
400kts
Departed: 09-Jan-17 09:29 AM
Arrived: 09-Jan-17 10:34 AM
Distance/Time
Traveled:
284nm/1:05
Distance/Time
To Go:
Arrived

Flight Plot

Page will automatically refresh every two minutes.

Flight plan parsing failed; only flown route is shown


Map Options




Map Legend


Flown Route
Filed Route
Departure Airport
Arrival Airport
Navaid (VOR, NDB)
Fix

Horizontal Profiles

Position Reports

Time Latitude Longitude Heading Altitude Ground
Speed
09-Jan-17 08:55 35.046940 -106.616370 12 5320ft 0kts
09-Jan-17 08:56 35.046940 -106.616370 12 5320ft 0kts
09-Jan-17 08:57 35.046940 -106.616370 12 5320ft 0kts
09-Jan-17 08:58 35.046940 -106.616370 12 5320ft 0kts
09-Jan-17 08:59 35.046940 -106.616370 12 5320ft 0kts
09-Jan-17 09:00 35.046940 -106.616370 12 5320ft 0kts
09-Jan-17 09:01 35.046940 -106.616370 12 5320ft 0kts
09-Jan-17 09:02 35.046940 -106.616370 12 5320ft 0kts
09-Jan-17 09:03 35.046940 -106.616370 12 5320ft 0kts
09-Jan-17 09:04 35.046940 -106.616370 12 5320ft 0kts
09-Jan-17 09:05 35.046940 -106.616370 12 5320ft 0kts
09-Jan-17 09:06 35.046940 -106.616370 12 5320ft 0kts
09-Jan-17 09:07 35.046940 -106.616370 12 5320ft 0kts
09-Jan-17 09:08 35.046940 -106.616370 12 5320ft 0kts
09-Jan-17 09:09 35.046940 -106.616370 12 5320ft 0kts
09-Jan-17 09:10 35.046940 -106.616370 12 5320ft 0kts
09-Jan-17 09:11 35.046940 -106.616370 12 5320ft 0kts
09-Jan-17 09:12 35.046940 -106.616370 12 5320ft 0kts
09-Jan-17 09:13 35.046940 -106.616370 12 5320ft 0kts
09-Jan-17 09:14 35.046940 -106.616370 12 5320ft 0kts
09-Jan-17 09:15 35.046940 -106.616370 12 5320ft 0kts
09-Jan-17 09:16 35.046940 -106.616370 12 5320ft 0kts
09-Jan-17 09:17 35.046940 -106.616370 12 5320ft 0kts
09-Jan-17 09:18 35.046676 -106.616434 8 5320ft 1kts
09-Jan-17 09:19 35.046196 -106.616452 357 5320ft 1kts
09-Jan-17 09:20 35.045752 -106.616256 319 5320ft 1kts
09-Jan-17 09:21 35.045555 -106.615952 280 5320ft 0kts
09-Jan-17 09:22 35.045551 -106.615925 272 5320ft 0kts
09-Jan-17 09:23 35.045551 -106.615925 272 5320ft 0kts
09-Jan-17 09:24 35.045551 -106.615925 272 5320ft 0kts
09-Jan-17 09:25 35.045551 -106.615925 272 5320ft 0kts
09-Jan-17 09:26 35.045569 -106.617680 270 5318ft 13kts
09-Jan-17 09:27 35.045406 -106.621266 208 5308ft 0kts
09-Jan-17 09:28 35.044358 -106.620459 94 5311ft 9kts
09-Jan-17 09:29 35.044138 -106.597299 88 5331ft 162kts
09-Jan-17 09:30 35.047583 -106.539989 75 6906ft 192kts
09-Jan-17 09:31 35.096034 -106.535772 294 7965ft 255kts
09-Jan-17 09:32 35.085900 -106.612792 261 10258ft 268kts
09-Jan-17 09:33 35.086587 -106.713592 274 12931ft 320kts
09-Jan-17 09:34 35.097601 -106.819646 278 16195ft 334kts
09-Jan-17 09:35 35.105583 -106.919422 258 18782ft 345kts
09-Jan-17 09:36 35.084064 -107.029446 257 21356ft 354kts
09-Jan-17 09:37 35.061582 -107.142257 256 23475ft 365kts
09-Jan-17 09:38 35.036299 -107.260202 260 25350ft 374kts
09-Jan-17 09:39 35.030603 -107.386118 267 27061ft 384kts
09-Jan-17 09:40 35.026287 -107.516846 267 28661ft 393kts
09-Jan-17 09:41 35.021881 -107.650122 266 30430ft 392kts
09-Jan-17 09:42 35.017439 -107.780706 266 32272ft 386kts
09-Jan-17 09:43 35.012884 -107.910779 266 32365ft 384kts
09-Jan-17 09:44 35.008196 -108.040596 266 32365ft 384kts
09-Jan-17 09:45 35.003434 -108.170580 267 32362ft 385kts
09-Jan-17 09:46 34.999774 -108.298971 267 32356ft 385kts
09-Jan-17 09:47 34.995597 -108.425871 267 32340ft 386kts
09-Jan-17 09:48 34.990608 -108.553457 266 32329ft 386kts
09-Jan-17 09:49 34.985559 -108.676082 266 32335ft 387kts
09-Jan-17 09:50 34.980224 -108.802063 266 32329ft 387kts
09-Jan-17 09:51 34.974641 -108.930667 266 32320ft 388kts
09-Jan-17 09:52 34.968660 -109.060427 265 32310ft 388kts
09-Jan-17 09:53 34.949862 -109.187651 248 32308ft 389kts
09-Jan-17 09:54 34.907167 -109.309268 248 32296ft 393kts
09-Jan-17 09:55 34.864058 -109.429293 248 32297ft 396kts
09-Jan-17 09:56 34.819248 -109.551762 247 32295ft 396kts
09-Jan-17 09:57 34.776069 -109.668995 247 32305ft 397kts
09-Jan-17 09:58 34.730785 -109.791396 247 32326ft 397kts
09-Jan-17 09:59 34.685705 -109.912825 247 32351ft 396kts
09-Jan-17 10:00 34.639490 -110.034040 246 32356ft 397kts
09-Jan-17 10:01 34.593829 -110.155538 247 32354ft 396kts
09-Jan-17 10:02 34.548235 -110.277024 247 32352ft 396kts
09-Jan-17 10:03 34.503346 -110.398927 247 32354ft 397kts
09-Jan-17 10:04 34.457777 -110.519973 247 32217ft 387kts
09-Jan-17 10:05 34.413436 -110.636895 247 31600ft 389kts
09-Jan-17 10:06 34.371080 -110.748193 244 29655ft 377kts
09-Jan-17 10:07 34.317779 -110.839928 229 27207ft 347kts
09-Jan-17 10:08 34.255513 -110.921106 228 25434ft 341kts
09-Jan-17 10:09 34.194660 -110.999742 228 23952ft 326kts
09-Jan-17 10:10 34.136503 -111.074672 228 22689ft 319kts
09-Jan-17 10:11 34.079500 -111.147125 228 21322ft 302kts
09-Jan-17 10:12 34.024790 -111.216400 228 20100ft 295kts
09-Jan-17 10:13 33.970265 -111.286071 228 18887ft 292kts
09-Jan-17 10:14 33.916946 -111.354180 228 17700ft 289kts
09-Jan-17 10:15 33.868921 -111.421600 238 16522ft 275kts
09-Jan-17 10:16 33.829933 -111.496797 237 15268ft 269kts
09-Jan-17 10:17 33.790546 -111.570757 238 14313ft 266kts
09-Jan-17 10:18 33.751728 -111.645654 237 12955ft 265kts
09-Jan-17 10:19 33.713257 -111.718073 237 12056ft 252kts
09-Jan-17 10:20 33.677083 -111.786294 235 11136ft 241kts
09-Jan-17 10:21 33.641535 -111.853091 237 10227ft 238kts
09-Jan-17 10:22 33.608850 -111.914583 238 9847ft 212kts
09-Jan-17 10:23 33.577030 -111.974357 238 8608ft 217kts
09-Jan-17 10:24 33.544642 -112.035093 238 7599ft 225kts
09-Jan-17 10:25 33.519074 -112.101587 250 6734ft 217kts
09-Jan-17 10:26 33.499114 -112.166737 250 5643ft 215kts
09-Jan-17 10:27 33.482780 -112.233254 260 4588ft 213kts
09-Jan-17 10:28 33.456539 -112.287166 183 3518ft 210kts
09-Jan-17 10:29 33.434001 -112.239027 80 3032ft 200kts
09-Jan-17 10:30 33.441445 -112.173737 92 3010ft 201kts
09-Jan-17 10:31 33.441080 -112.108922 90 2888ft 188kts
09-Jan-17 10:32 33.441137 -112.056784 91 1610ft 144kts
09-Jan-17 10:33 33.440841 -112.013275 90 1130ft 84kts
09-Jan-17 10:34 33.440020 -112.004230 136 1133ft 16kts
09-Jan-17 10:35 33.439053 -112.001935 88 1134ft 9kts
09-Jan-17 10:36 33.438381 -112.001600 197 1134ft 0kts
09-Jan-17 10:37 33.438381 -112.001600 197 1134ft 0kts

Navigation Log

Ident Type
Flight plan parsing failed, navigation log unavailable